createdAt,value
2022-09-24T00:01:29.699Z,100.00
2022-09-24T00:04:01.952Z,100.00
2022-09-24T00:06:33.277Z,100.00
2022-09-24T00:08:59.475Z,100.00
2022-09-24T00:11:27.971Z,100.00
2022-09-24T00:13:56.319Z,100.00
2022-09-24T00:16:24.957Z,100.00
2022-09-24T00:18:51.466Z,100.00
2022-09-24T00:21:24.231Z,100.00
2022-09-24T00:23:59.452Z,100.00
2022-09-24T00:26:44.546Z,100.00
2022-09-24T00:29:15.360Z,100.00
2022-09-24T00:31:42.164Z,100.00
2022-09-24T00:34:08.391Z,100.00
2022-09-24T00:36:34.760Z,100.00
2022-09-24T00:39:01.331Z,100.00
2022-09-24T00:41:33.794Z,100.00
2022-09-24T00:44:00.872Z,100.00
2022-09-24T00:46:31.420Z,100.00
2022-09-24T00:49:03.537Z,100.00
2022-09-24T00:51:32.464Z,100.00
2022-09-24T00:54:06.571Z,100.00
2022-09-24T00:56:37.220Z,100.00
2022-09-24T00:59:07.827Z,100.00
2022-09-24T01:01:34.413Z,100.00
2022-09-24T01:04:01.630Z,100.00
2022-09-24T01:06:28.241Z,100.00
2022-09-24T01:08:57.853Z,100.00
2022-09-24T01:11:46.347Z,100.00
2022-09-24T01:14:26.248Z,100.00
2022-09-24T01:17:07.615Z,100.00
2022-09-24T01:19:55.352Z,100.00
2022-09-24T01:22:39.849Z,100.00
2022-09-24T01:25:17.987Z,100.00
2022-09-24T01:28:05.919Z,100.00
2022-09-24T01:30:37.530Z,100.00
2022-09-24T01:33:09.613Z,100.00
2022-09-24T01:35:52.816Z,100.00
2022-09-24T01:38:27.699Z,100.00
2022-09-24T01:40:58.665Z,100.00
2022-09-24T01:43:27.131Z,100.00
2022-09-24T01:46:00.356Z,100.00
2022-09-24T01:48:27.347Z,100.00
2022-09-24T01:51:13.865Z,100.00
2022-09-24T01:53:56.814Z,100.00
2022-09-24T01:56:30.156Z,100.00
2022-09-24T01:59:10.300Z,100.00
2022-09-24T02:02:04.073Z,100.00
2022-09-24T02:04:37.206Z,100.00
2022-09-24T02:07:12.743Z,100.00
2022-09-24T02:09:42.559Z,100.00
2022-09-24T02:12:10.771Z,100.00
2022-09-24T02:14:43.127Z,100.00
2022-09-24T02:17:11.015Z,100.00
2022-09-24T02:19:40.540Z,100.00
2022-09-24T02:22:08.907Z,100.00
2022-09-24T02:24:49.608Z,100.00
2022-09-24T02:27:17.686Z,100.00
2022-09-24T02:29:45.501Z,100.00
2022-09-24T02:32:15.727Z,100.00
2022-09-24T02:34:48.118Z,100.00
2022-09-24T02:37:15.729Z,100.00
2022-09-24T02:39:42.254Z,100.00
2022-09-24T02:42:11.772Z,100.00
2022-09-24T02:44:38.143Z,100.00
2022-09-24T02:47:06.192Z,100.00
2022-09-24T02:49:32.545Z,100.00
2022-09-24T02:51:59.051Z,100.00
2022-09-24T02:54:25.497Z,100.00
2022-09-24T02:56:52.625Z,100.00
2022-09-24T02:59:19.148Z,100.00
2022-09-24T03:01:46.250Z,100.00
2022-09-24T03:04:14.565Z,100.00
2022-09-24T03:06:41.289Z,100.00
2022-09-24T03:09:07.651Z,100.00
2022-09-24T03:11:34.946Z,100.00
2022-09-24T03:14:01.414Z,100.00
2022-09-24T03:16:27.931Z,100.00
2022-09-24T03:18:54.172Z,100.00
2022-09-24T03:21:21.765Z,100.00
2022-09-24T03:23:48.131Z,100.00
2022-09-24T03:26:14.695Z,100.00
2022-09-24T03:28:41.404Z,100.00
2022-09-24T03:31:08.183Z,100.00
2022-09-24T03:33:43.525Z,100.00
2022-09-24T03:36:18.409Z,100.00
2022-09-24T03:38:46.129Z,100.00
2022-09-24T03:41:13.734Z,100.00
2022-09-24T03:43:40.114Z,100.00
2022-09-24T03:46:07.853Z,100.00
2022-09-24T03:48:36.418Z,100.00
2022-09-24T03:51:08.235Z,100.00
2022-09-24T03:53:34.451Z,100.00
2022-09-24T03:56:01.798Z,100.00
2022-09-24T03:58:31.029Z,100.00
2022-09-24T04:00:58.099Z,100.00
2022-09-24T04:03:24.936Z,100.00
2022-09-24T04:05:51.322Z,100.00
2022-09-24T04:08:20.366Z,100.00
2022-09-24T04:10:48.103Z,100.00
2022-09-24T04:13:15.289Z,100.00
2022-09-24T04:15:41.923Z,100.00
2022-09-24T04:18:08.673Z,100.00
2022-09-24T04:20:35.156Z,100.00
2022-09-24T04:23:01.632Z,100.00
2022-09-24T04:25:29.999Z,100.00
2022-09-24T04:28:02.797Z,100.00
2022-09-24T04:30:30.843Z,100.00
2022-09-24T04:32:59.780Z,100.00
2022-09-24T04:35:29.135Z,100.00
2022-09-24T04:37:56.664Z,100.00
2022-09-24T04:40:26.658Z,100.00
2022-09-24T04:42:53.494Z,100.00
2022-09-24T04:45:24.307Z,100.00
2022-09-24T04:47:55.381Z,100.00
2022-09-24T04:50:22.983Z,100.00
2022-09-24T04:52:53.506Z,100.00
2022-09-24T04:55:20.537Z,100.00
2022-09-24T04:57:47.589Z,100.00
2022-09-24T05:00:17.048Z,100.00
2022-09-24T05:02:44.469Z,100.00
2022-09-24T05:05:12.564Z,100.00
2022-09-24T05:07:40.922Z,100.00
2022-09-24T05:10:07.835Z,100.00
2022-09-24T05:12:35.651Z,100.00
2022-09-24T05:15:02.366Z,100.00
2022-09-24T05:17:28.824Z,100.00
2022-09-24T05:19:57.155Z,100.00
2022-09-24T05:22:26.800Z,100.00
2022-09-24T05:24:53.619Z,100.00
2022-09-24T05:27:21.022Z,100.00
2022-09-24T05:29:47.308Z,100.00
2022-09-24T05:32:16.695Z,100.00
2022-09-24T05:34:44.370Z,100.00
2022-09-24T05:37:12.234Z,100.00
2022-09-24T05:39:39.210Z,100.00
2022-09-24T05:42:08.619Z,100.00
2022-09-24T05:44:36.618Z,100.00
2022-09-24T05:47:03.068Z,100.00
2022-09-24T05:49:29.634Z,100.00
2022-09-24T05:51:56.224Z,100.00
2022-09-24T05:54:22.649Z,100.00
2022-09-24T05:56:49.200Z,100.00
2022-09-24T05:59:15.396Z,100.00
2022-09-24T06:01:41.737Z,100.00
2022-09-24T06:04:10.636Z,100.00
2022-09-24T06:06:37.007Z,100.00
2022-09-24T06:09:03.837Z,100.00
2022-09-24T06:11:39.745Z,100.00
2022-09-24T06:14:07.774Z,100.00
2022-09-24T06:16:34.527Z,100.00
2022-09-24T06:19:01.198Z,100.00
2022-09-24T06:21:27.996Z,100.00
2022-09-24T06:23:54.422Z,100.00
2022-09-24T06:26:21.327Z,100.00
2022-09-24T06:28:47.654Z,100.00
2022-09-24T06:31:14.161Z,100.00
2022-09-24T06:33:40.472Z,100.00
2022-09-24T06:36:07.491Z,100.00
2022-09-24T06:38:34.755Z,100.00
2022-09-24T06:41:05.591Z,100.00
2022-09-24T06:43:33.664Z,100.00
2022-09-24T06:46:01.505Z,100.00
2022-09-24T06:48:31.599Z,100.00
2022-09-24T06:50:57.936Z,100.00
2022-09-24T06:53:24.797Z,100.00
2022-09-24T06:55:52.656Z,100.00
2022-09-24T06:58:20.178Z,99.47
2022-09-24T07:00:52.525Z,98.97
2022-09-24T07:03:19.847Z,97.63
2022-09-24T07:05:46.123Z,97.33
2022-09-24T07:08:12.650Z,97.29
2022-09-24T07:10:46.198Z,96.13
2022-09-24T07:13:13.491Z,95.85
2022-09-24T07:15:41.292Z,95.51
2022-09-24T07:18:08.336Z,95.93
2022-09-24T07:20:36.252Z,95.04
2022-09-24T07:23:07.589Z,93.74
2022-09-24T07:25:34.698Z,93.46
2022-09-24T07:28:03.884Z,93.36
2022-09-24T07:30:32.350Z,93.20
2022-09-24T07:32:58.941Z,93.22
2022-09-24T07:35:26.964Z,93.00
2022-09-24T07:38:00.947Z,93.41
2022-09-24T07:40:29.081Z,93.25
2022-09-24T07:42:56.291Z,90.62
2022-09-24T07:45:25.344Z,91.24
2022-09-24T07:47:59.433Z,89.98
2022-09-24T07:50:27.000Z,90.77
2022-09-24T07:52:54.085Z,91.66
2022-09-24T07:55:21.530Z,90.98
2022-09-24T07:57:53.398Z,90.34
2022-09-24T08:00:21.107Z,90.44
2022-09-24T08:02:47.851Z,89.72
2022-09-24T08:05:15.892Z,89.62
2022-09-24T08:07:42.412Z,89.92
2022-09-24T08:10:09.287Z,88.92
2022-09-24T08:12:36.360Z,88.69
2022-09-24T08:15:02.971Z,89.02
2022-09-24T08:17:30.719Z,89.13
2022-09-24T08:19:57.248Z,89.42
2022-09-24T08:22:24.278Z,88.80
2022-09-24T08:24:50.521Z,88.80
2022-09-24T08:27:17.558Z,88.29
2022-09-24T08:29:43.949Z,88.50
2022-09-24T08:32:10.249Z,88.07
2022-09-24T08:34:39.836Z,87.80
2022-09-24T08:37:07.161Z,87.85
2022-09-24T08:39:33.481Z,88.39
2022-09-24T08:42:03.873Z,88.47
2022-09-24T08:44:56.235Z,87.32
2022-09-24T08:47:31.858Z,86.65
2022-09-24T08:50:08.724Z,87.37
2022-09-24T08:52:46.182Z,86.82
2022-09-24T08:55:32.174Z,87.83
2022-09-24T08:58:10.152Z,86.34
2022-09-24T09:00:45.741Z,87.15
2022-09-24T09:03:36.520Z,86.72
2022-09-24T09:06:14.576Z,87.10
2022-09-24T09:09:16.431Z,85.39
2022-09-24T09:11:46.817Z,85.92
2022-09-24T09:14:14.592Z,85.35
2022-09-24T09:16:47.849Z,85.47
2022-09-24T09:19:16.955Z,84.35
2022-09-24T09:21:52.903Z,84.20
2022-09-24T09:24:25.349Z,84.52
2022-09-24T09:26:55.011Z,85.36
2022-09-24T09:29:24.916Z,84.81
2022-09-24T09:32:04.610Z,84.23
2022-09-24T09:34:51.074Z,84.34
2022-09-24T09:37:40.044Z,83.43
2022-09-24T09:40:34.077Z,83.32
2022-09-24T09:43:02.577Z,83.62
2022-09-24T09:46:02.953Z,83.12
2022-09-24T09:48:51.544Z,83.26
2022-09-24T09:51:22.234Z,82.53
2022-09-24T09:54:03.667Z,84.25
2022-09-24T09:56:34.184Z,81.98
2022-09-24T09:59:14.681Z,80.79
2022-09-24T10:01:45.186Z,80.50
2022-09-24T10:04:23.493Z,80.20
2022-09-24T10:06:49.909Z,81.45
2022-09-24T10:09:21.822Z,81.78
2022-09-24T10:11:48.093Z,80.70
2022-09-24T10:14:18.258Z,80.84
2022-09-24T10:16:50.866Z,80.43
2022-09-24T10:19:24.040Z,80.38
2022-09-24T10:21:53.042Z,80.33
2022-09-24T10:24:28.141Z,78.67
2022-09-24T10:26:54.807Z,78.51
2022-09-24T10:29:45.131Z,79.90
2022-09-24T10:32:17.672Z,80.63
2022-09-24T10:35:05.118Z,80.46
2022-09-24T10:37:31.741Z,79.12
2022-09-24T10:40:11.128Z,79.12
2022-09-24T10:42:37.685Z,77.76
2022-09-24T10:45:14.960Z,77.59
2022-09-24T10:47:59.720Z,75.17
2022-09-24T10:50:37.507Z,73.88
2022-09-24T10:53:08.259Z,74.39
2022-09-24T10:55:45.418Z,76.08
2022-09-24T10:58:50.973Z,73.06
2022-09-24T11:01:26.480Z,73.88
2022-09-24T11:04:20.672Z,71.85
2022-09-24T11:07:14.888Z,70.55
2022-09-24T11:10:05.789Z,71.65
2022-09-24T11:12:55.394Z,69.94
2022-09-24T11:15:33.728Z,70.41
2022-09-24T11:18:11.474Z,69.02
2022-09-24T11:21:02.281Z,69.42
2022-09-24T11:24:04.056Z,72.41
2022-09-24T11:26:51.774Z,70.85
2022-09-24T11:29:37.362Z,71.76
2022-09-24T11:32:28.213Z,74.06
2022-09-24T11:35:12.265Z,75.26
2022-09-24T11:38:04.402Z,74.38
2022-09-24T11:40:51.251Z,75.19
2022-09-24T11:43:56.698Z,75.56
2022-09-24T11:46:46.503Z,75.98
2022-09-24T11:49:28.224Z,77.76
2022-09-24T11:52:21.155Z,75.14
2022-09-24T11:55:20.999Z,74.94
2022-09-24T11:58:17.367Z,74.22
2022-09-24T12:00:51.632Z,74.67
2022-09-24T12:03:39.366Z,75.10
2022-09-24T12:06:12.347Z,74.19
2022-09-24T12:08:41.566Z,72.24
2022-09-24T12:11:24.338Z,72.57
2022-09-24T12:14:01.940Z,73.06
2022-09-24T12:16:33.150Z,73.84
2022-09-24T12:19:20.629Z,72.22
2022-09-24T12:21:50.057Z,73.83
2022-09-24T12:25:07.831Z,73.17
2022-09-24T12:27:36.732Z,73.49
2022-09-24T12:30:31.001Z,72.40
2022-09-24T12:33:04.816Z,71.94
2022-09-24T12:36:03.692Z,70.90
2022-09-24T12:38:49.562Z,72.14
2022-09-24T12:41:39.513Z,71.42
2022-09-24T12:44:11.874Z,72.59
2022-09-24T12:46:45.938Z,71.46
2022-09-24T12:49:24.161Z,72.32
2022-09-24T12:51:55.763Z,70.49
2022-09-24T12:54:27.158Z,69.14
2022-09-24T12:57:26.175Z,67.95
2022-09-24T12:59:58.320Z,69.16
2022-09-24T13:02:46.157Z,69.52
2022-09-24T13:05:22.249Z,71.56
2022-09-24T13:08:07.380Z,71.50
2022-09-24T13:10:35.849Z,71.66
2022-09-24T13:13:15.320Z,72.61
2022-09-24T13:15:42.162Z,74.75
2022-09-24T13:18:09.416Z,73.89
2022-09-24T13:20:40.677Z,74.50
2022-09-24T13:23:18.847Z,73.62
2022-09-24T13:26:03.102Z,73.71
2022-09-24T13:28:38.889Z,74.16
2022-09-24T13:31:21.897Z,75.28
2022-09-24T13:33:57.250Z,76.91
2022-09-24T13:36:39.309Z,77.37
2022-09-24T13:39:30.831Z,76.34
2022-09-24T13:42:18.446Z,77.42
2022-09-24T13:44:56.028Z,76.53
2022-09-24T13:47:48.282Z,76.86
2022-09-24T13:50:19.373Z,75.87
2022-09-24T13:52:53.237Z,74.98
2022-09-24T13:55:25.928Z,75.70
2022-09-24T13:57:52.345Z,76.38
2022-09-24T14:00:21.707Z,76.83
2022-09-24T14:02:52.747Z,76.13
2022-09-24T14:05:21.131Z,75.64
2022-09-24T14:08:19.515Z,76.58
2022-09-24T14:10:50.384Z,75.40
2022-09-24T14:13:26.454Z,75.46
2022-09-24T14:16:01.937Z,73.40
2022-09-24T14:18:29.073Z,72.52
2022-09-24T14:21:09.685Z,72.17
2022-09-24T14:23:51.615Z,71.01
2022-09-24T14:26:30.336Z,70.69
2022-09-24T14:29:00.130Z,69.37
2022-09-24T14:31:27.574Z,71.97
2022-09-24T14:33:54.211Z,72.82
2022-09-24T14:36:27.536Z,72.96
2022-09-24T14:39:04.769Z,71.26
2022-09-24T14:41:34.662Z,71.50
2022-09-24T14:44:24.340Z,70.95
2022-09-24T14:46:55.639Z,68.08
2022-09-24T14:49:25.843Z,68.38
2022-09-24T14:51:55.314Z,67.01
2022-09-24T14:54:33.668Z,68.42
2022-09-24T14:57:18.137Z,68.92
2022-09-24T14:59:46.466Z,70.28
2022-09-24T15:02:24.548Z,71.53
2022-09-24T15:04:54.239Z,71.92
2022-09-24T15:07:26.257Z,71.36
2022-09-24T15:09:55.583Z,72.37
2022-09-24T15:12:30.321Z,71.32
2022-09-24T15:14:58.659Z,72.69
2022-09-24T15:17:30.470Z,73.29
2022-09-24T15:19:57.389Z,72.62
2022-09-24T15:22:26.535Z,71.54
2022-09-24T15:24:58.792Z,71.87
2022-09-24T15:27:31.307Z,71.47
2022-09-24T15:29:59.784Z,72.61
2022-09-24T15:32:28.551Z,73.08
2022-09-24T15:34:55.948Z,71.59
2022-09-24T15:37:25.085Z,74.03
2022-09-24T15:39:56.900Z,76.78
2022-09-24T15:42:25.942Z,78.66
2022-09-24T15:44:56.264Z,80.44
2022-09-24T15:47:22.720Z,83.29
2022-09-24T15:49:49.759Z,83.27
2022-09-24T15:52:23.650Z,82.84
2022-09-24T15:54:51.934Z,83.27
2022-09-24T15:57:18.187Z,84.50
2022-09-24T15:59:44.491Z,86.19
2022-09-24T16:02:17.594Z,87.64
2022-09-24T16:04:44.125Z,86.67
2022-09-24T16:07:10.482Z,86.97
2022-09-24T16:09:36.883Z,88.81
2022-09-24T16:12:03.418Z,90.58
2022-09-24T16:14:29.703Z,92.31
2022-09-24T16:16:56.231Z,92.84
2022-09-24T16:19:22.565Z,93.71
2022-09-24T16:21:51.325Z,94.29
2022-09-24T16:24:18.232Z,92.85
2022-09-24T16:26:44.559Z,93.11
2022-09-24T16:29:11.359Z,93.80
2022-09-24T16:31:37.977Z,91.95
2022-09-24T16:34:04.775Z,92.45
2022-09-24T16:36:31.510Z,92.81
2022-09-24T16:38:58.302Z,95.03
2022-09-24T16:41:26.005Z,93.59
2022-09-24T16:43:56.194Z,93.60
2022-09-24T16:46:23.519Z,94.29
2022-09-24T16:48:50.079Z,94.59
2022-09-24T16:51:17.299Z,95.44
2022-09-24T16:53:48.769Z,95.70
2022-09-24T16:56:16.886Z,95.85
2022-09-24T16:58:45.087Z,95.97
2022-09-24T17:01:14.152Z,96.71
2022-09-24T17:03:41.267Z,96.53
2022-09-24T17:06:08.576Z,97.44
2022-09-24T17:08:54.891Z,98.67
2022-09-24T17:11:22.335Z,100.00
2022-09-24T17:13:49.581Z,100.00
2022-09-24T17:16:18.012Z,98.69
2022-09-24T17:18:46.516Z,98.98
2022-09-24T17:21:14.595Z,98.42
2022-09-24T17:23:41.035Z,99.38
2022-09-24T17:26:14.048Z,99.58
2022-09-24T17:28:43.658Z,99.31
2022-09-24T17:31:13.618Z,99.02
2022-09-24T17:33:44.800Z,98.76
2022-09-24T17:36:15.107Z,99.92
2022-09-24T17:38:41.939Z,99.99
2022-09-24T17:41:11.169Z,99.50
2022-09-24T17:43:38.479Z,99.52
2022-09-24T17:46:14.109Z,99.96
2022-09-24T17:48:44.129Z,100.00
2022-09-24T17:51:13.490Z,100.00
2022-09-24T17:53:40.470Z,100.00
2022-09-24T17:56:09.328Z,100.00
2022-09-24T17:58:37.774Z,100.00
2022-09-24T18:01:17.846Z,100.00
2022-09-24T18:03:45.556Z,100.00
2022-09-24T18:06:14.215Z,100.00
2022-09-24T18:08:43.235Z,100.00
2022-09-24T18:11:13.059Z,100.00
2022-09-24T18:13:39.534Z,100.00
2022-09-24T18:16:12.583Z,100.00
2022-09-24T18:18:39.622Z,100.00
2022-09-24T18:21:08.650Z,100.00
2022-09-24T18:23:35.516Z,100.00
2022-09-24T18:26:19.070Z,100.00
2022-09-24T18:28:45.830Z,100.00
2022-09-24T18:31:12.790Z,100.00
2022-09-24T18:33:43.230Z,100.00
2022-09-24T18:36:13.538Z,100.00
2022-09-24T18:38:41.740Z,100.00
2022-09-24T18:41:11.444Z,100.00
2022-09-24T18:43:38.329Z,100.00
2022-09-24T18:46:07.745Z,100.00
2022-09-24T18:48:34.653Z,100.00
2022-09-24T18:51:01.067Z,100.00
2022-09-24T18:53:30.890Z,100.00
2022-09-24T18:56:02.515Z,100.00
2022-09-24T18:58:29.285Z,100.00
2022-09-24T19:01:01.116Z,100.00
2022-09-24T19:03:28.947Z,100.00
2022-09-24T19:06:01.904Z,100.00
2022-09-24T19:08:31.206Z,100.00
2022-09-24T19:11:07.168Z,100.00
2022-09-24T19:13:36.239Z,100.00
2022-09-24T19:16:05.373Z,100.00
2022-09-24T19:18:32.764Z,100.00
2022-09-24T19:20:59.229Z,100.00
2022-09-24T19:23:25.813Z,100.00
2022-09-24T19:25:52.260Z,100.00
2022-09-24T19:28:18.772Z,100.00
2022-09-24T19:30:48.642Z,100.00
2022-09-24T19:33:16.384Z,100.00
2022-09-24T19:36:04.302Z,100.00
2022-09-24T19:38:34.989Z,100.00
2022-09-24T19:41:22.256Z,100.00
2022-09-24T19:43:51.480Z,100.00
2022-09-24T19:46:20.260Z,100.00
2022-09-24T19:48:48.805Z,100.00
2022-09-24T19:51:18.870Z,100.00
2022-09-24T19:53:53.473Z,100.00
2022-09-24T19:56:22.897Z,100.00
2022-09-24T19:58:52.118Z,100.00
2022-09-24T20:01:20.934Z,100.00
2022-09-24T20:03:47.921Z,100.00
2022-09-24T20:06:18.830Z,100.00
2022-09-24T20:08:46.199Z,100.00
2022-09-24T20:11:19.729Z,100.00
2022-09-24T20:13:52.075Z,100.00
2022-09-24T20:16:20.918Z,100.00
2022-09-24T20:18:49.098Z,100.00
2022-09-24T20:21:17.705Z,100.00
2022-09-24T20:23:46.799Z,100.00
2022-09-24T20:26:33.562Z,100.00
2022-09-24T20:29:01.344Z,100.00
2022-09-24T20:31:28.433Z,100.00
2022-09-24T20:33:54.842Z,100.00
2022-09-24T20:36:24.442Z,100.00
2022-09-24T20:38:52.422Z,100.00
2022-09-24T20:41:21.145Z,100.00
2022-09-24T20:43:47.926Z,100.00
2022-09-24T20:46:16.154Z,100.00
2022-09-24T20:48:42.814Z,100.00
2022-09-24T20:51:17.897Z,100.00
2022-09-24T20:53:45.848Z,100.00
2022-09-24T20:56:13.053Z,100.00
2022-09-24T20:58:39.605Z,100.00
2022-09-24T21:01:07.514Z,100.00
2022-09-24T21:03:44.997Z,100.00
2022-09-24T21:06:14.170Z,100.00
2022-09-24T21:08:43.193Z,100.00
2022-09-24T21:11:18.053Z,100.00
2022-09-24T21:13:50.788Z,100.00
2022-09-24T21:16:19.993Z,100.00
2022-09-24T21:18:47.883Z,100.00
2022-09-24T21:21:19.646Z,100.00
2022-09-24T21:23:52.144Z,100.00
2022-09-24T21:26:23.949Z,100.00
2022-09-24T21:28:52.537Z,100.00
2022-09-24T21:31:21.515Z,100.00
2022-09-24T21:33:51.925Z,100.00
2022-09-24T21:36:19.497Z,100.00
2022-09-24T21:39:00.303Z,100.00
2022-09-24T21:41:32.285Z,100.00
2022-09-24T21:43:59.268Z,100.00
2022-09-24T21:46:27.665Z,100.00
2022-09-24T21:48:55.210Z,100.00
2022-09-24T21:51:21.927Z,100.00
2022-09-24T21:53:53.292Z,100.00
2022-09-24T21:56:21.132Z,100.00
2022-09-24T21:58:48.393Z,100.00
2022-09-24T22:01:17.873Z,100.00
2022-09-24T22:03:47.598Z,100.00
2022-09-24T22:06:14.348Z,100.00
2022-09-24T22:08:40.629Z,100.00
2022-09-24T22:11:09.326Z,100.00
2022-09-24T22:13:37.119Z,100.00
2022-09-24T22:16:05.083Z,100.00
2022-09-24T22:18:33.260Z,100.00
2022-09-24T22:21:05.815Z,100.00
2022-09-24T22:23:32.207Z,100.00
2022-09-24T22:25:58.738Z,100.00
2022-09-24T22:28:26.791Z,100.00
2022-09-24T22:30:55.873Z,100.00
2022-09-24T22:33:41.873Z,100.00
2022-09-24T22:36:08.404Z,100.00
2022-09-24T22:38:35.341Z,100.00
2022-09-24T22:41:07.446Z,100.00
2022-09-24T22:43:34.282Z,100.00
2022-09-24T22:46:02.917Z,100.00
2022-09-24T22:48:31.341Z,100.00
2022-09-24T22:50:57.516Z,100.00
2022-09-24T22:53:24.138Z,100.00
2022-09-24T22:56:01.138Z,100.00
2022-09-24T22:58:27.704Z,100.00
2022-09-24T23:00:53.876Z,100.00
2022-09-24T23:03:20.245Z,100.00
2022-09-24T23:05:47.099Z,100.00
2022-09-24T23:08:13.310Z,100.00
2022-09-24T23:10:39.770Z,100.00
2022-09-24T23:13:06.157Z,100.00
2022-09-24T23:15:32.329Z,100.00
2022-09-24T23:17:58.452Z,100.00
2022-09-24T23:20:24.776Z,100.00
2022-09-24T23:22:50.923Z,100.00
2022-09-24T23:25:17.089Z,100.00
2022-09-24T23:27:43.660Z,100.00
2022-09-24T23:30:10.055Z,100.00
2022-09-24T23:32:36.431Z,100.00
2022-09-24T23:35:02.860Z,100.00
2022-09-24T23:37:29.035Z,100.00
2022-09-24T23:39:55.396Z,100.00
2022-09-24T23:42:22.453Z,100.00
2022-09-24T23:44:48.690Z,100.00
2022-09-24T23:47:14.835Z,100.00
2022-09-24T23:49:41.196Z,100.00
2022-09-24T23:52:07.483Z,100.00
2022-09-24T23:54:34.476Z,100.00
2022-09-24T23:57:01.220Z,100.00
2022-09-24T23:59:27.393Z,100.00
